Terminal Aerodrome Forecast
Issued by NWS

Home | Current Version | Previous Version | Text Only | Print | Product List | Glossary Off
Versions: 1 2 3 4 5 6 7 8 9 10 11 12 13 14 15 16 17 18

000
FTUS43 KBIS 242300
TAFMOT
TAF
KMOT 242331Z 2500/2524 23015KT P6SM -SHRA BKN020 OVC030
     FM250300 26015KT P6SM -SHRA OVC015
     FM250700 28015KT P6SM VCSH OVC008
     FM251500 29015KT P6SM BKN015 OVC035
     FM252100 29014KT P6SM SCT015 BKN035=

USA.gov is the U.S. government's official web portal to all federal, state and local government web resources and services.